Time;durP1;ratioP1;P1;durP2;ratioP2;P2;SDS_P1;SDS_P2;PMS_P1;PMS_P2;Temp;Humidity;BMP_temperature;BMP_pressure;BME280_temperature;BME280_humidity;BME280_pressure;Samples;Min_cycle;Max_cycle;Signal;HPM_P1;HPM_P2
2022/06/16 00:00:49;;;;;;;;;;;;;;;;;;4932208;29;19966;-92
2022/06/16 00:03:28;;;;;;;;;;;;;;;;;;4924136;29;19986;-92
2022/06/16 00:05:58;;;;;;;;;;;;;;;;;;4925580;29;19923;-93
2022/06/16 00:08:25;;;;;;;;;;;;;;;;;;4921541;29;19926;-95
2022/06/16 00:13:36;;;;;;;;;;;;;;;;;;4921574;29;20411;-92
2022/06/16 00:16:02;;;;;;;;;;;;;;;;;;4910577;29;20062;-91
2022/06/16 00:18:28;;;;;;;;;;;;;;;;;;4941862;29;19979;-91
2022/06/16 00:20:53;;;;;;;;;;;;;;;;;;4972026;28;19925;-91
2022/06/16 00:23:28;;;;;;;;;;;;;;;;;;5018608;28;20289;-90
2022/06/16 00:25:56;;;;;;;;;;;;;;;;;;5019656;28;19917;-92
2022/06/16 00:28:21;;;;;;;;;;;;;;;;;;5001976;28;19921;-90
2022/06/16 00:30:47;;;;;;;;;;;;;;;;;;5001142;28;19924;-90
2022/06/16 00:33:12;;;;;;;;;;;;;;;;;;4998625;28;19917;-89
2022/06/16 00:35:38;;;;;;;;;;;;;;;;;;5017110;28;19928;-90
2022/06/16 00:38:03;;;;;;;;;;;;;;;;;;5015880;28;19926;-92
2022/06/16 00:40:29;;;;;;;;;;;;;;;;;;5016476;28;19918;-91
2022/06/16 00:42:54;;;;;;;;;;;;;;;;;;5016487;28;19918;-90
2022/06/16 00:45:38;;;;;;;;;;;;;;;;;;5016068;28;19918;-89
2022/06/16 00:48:05;;;;;;;;;;;;;;;;;;5017502;28;20344;-91
2022/06/16 00:50:31;;;;;;;;;;;;;;;;;;5019012;28;19918;-91
2022/06/16 00:52:56;;;;;;;;;;;;;;;;;;5002354;28;19925;-90
2022/06/16 00:55:22;;;;;;;;;;;;;;;;;;5002279;28;19945;-90
2022/06/16 00:57:49;;;;;;;;;;;;;;;;;;5019271;28;20377;-90
2022/06/16 01:00:26;;;;;;;;;;;;;;;;;;5019398;28;20297;-89
2022/06/16 01:03:02;;;;;;;;;;;;;;;;;;5017405;28;19917;-90
2022/06/16 01:05:29;;;;;;;;;;;;;;;;;;5001925;28;19917;-90
2022/06/16 01:08:00;;;;;;;;;;;;;;;;;;5020575;28;19906;-90
2022/06/16 01:10:30;;;;;;;;;;;;;;;;;;5002381;28;19917;-90
2022/06/16 01:16:18;;;;;;;;;;;;;;;;;;5019578;28;19924;-89
2022/06/16 01:18:57;;;;;;;;;;;;;;;;;;5020173;28;19960;-91
2022/06/16 01:21:40;;;;;;;;;;;;;;;;;;5019433;28;19928;-92
2022/06/16 01:24:24;;;;;;;;;;;;;;;;;;5019607;28;20049;-93
2022/06/16 01:27:05;;;;;;;;;;;;;;;;;;5002948;28;20289;-92
2022/06/16 01:29:34;;;;;;;;;;;;;;;;;;5002280;28;19933;-93
2022/06/16 01:32:02;;;;;;;;;;;;;;;;;;5024982;28;20373;-93
2022/06/16 01:34:34;;;;;;;;;;;;;;;;;;5023694;28;19922;-92
2022/06/16 01:37:02;;;;;;;;;;;;;;;;;;5022131;28;19905;-91
2022/06/16 01:39:34;;;;;;;;;;;;;;;;;;5005652;28;19968;-92
2022/06/16 01:42:12;;;;;;;;;;;;;;;;;;5021872;28;20011;-93
2022/06/16 01:45:00;;;;;;;;;;;;;;;;;;5005434;28;20371;-92
2022/06/16 01:47:32;;;;;;;;;;;;;;;;;;5023603;28;19917;-92
2022/06/16 01:50:01;;;;;;;;;;;;;;;;;;5021314;28;19921;-93
2022/06/16 01:52:35;;;;;;;;;;;;;;;;;;5004213;28;20262;-92
2022/06/16 01:55:04;;;;;;;;;;;;;;;;;;5022985;28;20377;-93
2022/06/16 01:57:35;;;;;;;;;;;;;;;;;;5006010;28;19980;-92
2022/06/16 02:00:00;;;;;;;;;;;;;;;;;;5021801;28;19961;-92
2022/06/16 02:02:31;;;;;;;;;;;;;;;;;;5022875;28;20281;-92
2022/06/16 02:05:02;;;;;;;;;;;;;;;;;;5022223;28;19972;-93
2022/06/16 02:07:33;;;;;;;;;;;;;;;;;;5021110;28;19947;-93
2022/06/16 02:10:01;;;;;;;;;;;;;;;;;;5021937;28;19922;-92
2022/06/16 02:15:27;;;;;;;;;;;;;;;;;;5021256;28;19924;-92
2022/06/16 02:17:55;;;;;;;;;;;;;;;;;;5022829;28;19942;-93
2022/06/16 02:20:23;;;;;;;;;;;;;;;;;;5024034;28;19939;-93
2022/06/16 02:22:51;;;;;;;;;;;;;;;;;;5023387;28;20305;-91
2022/06/16 02:25:18;;;;;;;;;;;;;;;;;;5023048;28;19981;-93
2022/06/16 02:27:43;;;;;;;;;;;;;;;;;;5020914;28;20366;-93
2022/06/16 02:30:10;;;;;;;;;;;;;;;;;;5004159;28;19918;-95
2022/06/16 02:32:59;;;;;;;;;;;;;;;;;;5021755;28;19940;-93
2022/06/16 02:35:33;;;;;;;;;;;;;;;;;;5021540;28;19918;-93
2022/06/16 02:38:18;;;;;;;;;;;;;;;;;;5023533;28;19917;-93
2022/06/16 02:40:49;;;;;;;;;;;;;;;;;;5025403;28;20004;-93
2022/06/16 02:43:33;;;;;;;;;;;;;;;;;;5017828;28;20386;-94
2022/06/16 02:46:04;;;;;;;;;;;;;;;;;;5000711;28;19936;-93
2022/06/16 02:48:45;;;;;;;;;;;;;;;;;;5002441;28;19949;-93
2022/06/16 02:51:13;;;;;;;;;;;;;;;;;;4983827;28;20009;-92
2022/06/16 02:56:11;;;;;;;;;;;;;;;;;;5002705;28;19940;-91
2022/06/16 02:58:38;;;;;;;;;;;;;;;;;;4984734;28;19948;-90
2022/06/16 03:01:05;;;;;;;;;;;;;;;;;;5001435;28;19918;-90
2022/06/16 03:03:33;;;;;;;;;;;;;;;;;;5000399;28;19917;-91
2022/06/16 03:05:59;;;;;;;;;;;;;;;;;;5002392;28;20298;-93
2022/06/16 03:08:26;;;;;;;;;;;;;;;;;;5000461;28;19918;-93
2022/06/16 03:10:51;;;;;;;;;;;;;;;;;;5001346;28;19922;-92
2022/06/16 03:13:30;;;;;;;;;;;;;;;;;;5001594;28;20432;-92
2022/06/16 03:16:16;;;;;;;;;;;;;;;;;;5002563;28;19918;-92
2022/06/16 03:18:44;;;;;;;;;;;;;;;;;;4985357;28;19918;-92
2022/06/16 03:21:09;;;;;;;;;;;;;;;;;;4971758;28;19922;-93
2022/06/16 03:23:37;;;;;;;;;;;;;;;;;;4981012;28;19929;-92
2022/06/16 03:26:03;;;;;;;;;;;;;;;;;;4967489;28;19918;-92
2022/06/16 03:28:28;;;;;;;;;;;;;;;;;;4964432;28;19918;-92
2022/06/16 03:30:54;;;;;;;;;;;;;;;;;;4964400;28;19925;-92
2022/06/16 03:33:21;;;;;;;;;;;;;;;;;;4983335;28;19918;-93
2022/06/16 03:35:48;;;;;;;;;;;;;;;;;;4965477;28;19922;-93
2022/06/16 03:38:47;;;;;;;;;;;;;;;;;;4965082;28;19965;-93
2022/06/16 03:41:07;;;;;;;;;;;;;;;;;;4982362;28;19941;-93
2022/06/16 03:43:33;;;;;;;;;;;;;;;;;;4985055;28;19957;-93
2022/06/16 03:45:59;;;;;;;;;;;;;;;;;;4983255;28;19918;-92
2022/06/16 03:48:24;;;;;;;;;;;;;;;;;;4981533;28;19925;-93
2022/06/16 03:50:50;;;;;;;;;;;;;;;;;;4966654;28;20297;-93
2022/06/16 03:53:15;;;;;;;;;;;;;;;;;;4982295;28;19918;-93
2022/06/16 03:55:43;;;;;;;;;;;;;;;;;;4981190;28;19918;-93
2022/06/16 03:58:09;;;;;;;;;;;;;;;;;;4980739;28;19929;-93
2022/06/16 04:00:34;;;;;;;;;;;;;;;;;;4987671;28;19918;-93
2022/06/16 04:05:44;;;;;;;;;;;;;;;;;;4982216;28;19949;-94
2022/06/16 04:08:13;;;;;;;;;;;;;;;;;;4986889;28;19918;-89
2022/06/16 04:10:38;;;;;;;;;;;;;;;;;;4981119;28;19949;-90
2022/06/16 04:13:04;;;;;;;;;;;;;;;;;;4963389;28;20330;-90
2022/06/16 04:15:33;;;;;;;;;;;;;;;;;;4980771;28;19918;-89
2022/06/16 04:17:58;;;;;;;;;;;;;;;;;;4980760;28;19922;-90
2022/06/16 04:20:24;;;;;;;;;;;;;;;;;;4963080;28;19929;-88
2022/06/16 04:22:53;;;;;;;;;;;;;;;;;;4981222;28;19919;-90
2022/06/16 04:25:35;;;;;;;;;;;;;;;;;;4979157;28;20297;-89
2022/06/16 04:28:04;;;;;;;;;;;;;;;;;;4979644;28;19922;-89
2022/06/16 04:30:30;;;;;;;;;;;;;;;;;;4978988;28;19941;-88
2022/06/16 04:32:57;;;;;;;;;;;;;;;;;;4980531;28;20390;-89
2022/06/16 04:35:23;;;;;;;;;;;;;;;;;;4981190;28;19988;-91
2022/06/16 04:37:49;;;;;;;;;;;;;;;;;;4980744;28;20402;-90
2022/06/16 04:40:18;;;;;;;;;;;;;;;;;;4998016;28;19921;-91
2022/06/16 04:42:44;;;;;;;;;;;;;;;;;;4985695;28;19917;-90
2022/06/16 04:45:10;;;;;;;;;;;;;;;;;;4984313;28;19918;-91
2022/06/16 04:47:37;;;;;;;;;;;;;;;;;;5016795;28;20008;-92
2022/06/16 04:50:02;;;;;;;;;;;;;;;;;;5001238;28;19921;-90
2022/06/16 04:52:28;;;;;;;;;;;;;;;;;;4984662;28;20437;-90
2022/06/16 04:54:53;;;;;;;;;;;;;;;;;;4984783;28;20393;-92
2022/06/16 04:57:19;;;;;;;;;;;;;;;;;;5003706;28;19918;-92
2022/06/16 05:00:12;;;;;;;;;;;;;;;;;;5018362;28;19929;-92
2022/06/16 05:05:43;;;;;;;;;;;;;;;;;;5019871;28;19948;-92
2022/06/16 05:08:11;;;;;;;;;;;;;;;;;;4994420;28;19918;-94
2022/06/16 05:10:42;;;;;;;;;;;;;;;;;;5007879;28;19921;-94
2022/06/16 05:13:08;;;;;;;;;;;;;;;;;;4989432;28;19928;-93
2022/06/16 05:15:35;;;;;;;;;;;;;;;;;;5007854;28;20012;-94
2022/06/16 05:18:04;;;;;;;;;;;;;;;;;;5003410;28;19924;-94
2022/06/16 05:20:30;;;;;;;;;;;;;;;;;;4983543;28;19929;-91
2022/06/16 05:22:56;;;;;;;;;;;;;;;;;;4982728;28;19969;-91
2022/06/16 05:25:22;;;;;;;;;;;;;;;;;;4983759;28;20613;-92
2022/06/16 05:27:48;;;;;;;;;;;;;;;;;;5007671;28;19928;-91
2022/06/16 05:30:14;;;;;;;;;;;;;;;;;;5006291;28;19902;-91
2022/06/16 05:32:40;;;;;;;;;;;;;;;;;;4986056;28;19917;-92
2022/06/16 05:35:05;;;;;;;;;;;;;;;;;;5002605;28;20389;-91
2022/06/16 05:37:35;;;;;;;;;;;;;;;;;;5002344;28;20336;-91
2022/06/16 05:40:00;;;;;;;;;;;;;;;;;;5006079;28;19921;-93
2022/06/16 05:42:26;;;;;;;;;;;;;;;;;;5003502;28;20333;-91
2022/06/16 05:44:51;;;;;;;;;;;;;;;;;;5004137;28;19964;-92
2022/06/16 05:47:17;;;;;;;;;;;;;;;;;;5003549;28;20011;-91
2022/06/16 05:49:42;;;;;;;;;;;;;;;;;;4984691;28;19918;-90
2022/06/16 05:52:09;;;;;;;;;;;;;;;;;;4986328;28;20012;-91
2022/06/16 05:54:35;;;;;;;;;;;;;;;;;;5002809;28;19917;-91
2022/06/16 05:57:00;;;;;;;;;;;;;;;;;;5005308;28;20274;-91
2022/06/16 05:59:25;;;;;;;;;;;;;;;;;;5006714;28;20358;-92
2022/06/16 06:01:51;;;;;;;;;;;;;;;;;;5004160;28;19918;-92
2022/06/16 06:04:16;;;;;;;;;;;;;;;;;;5004975;28;20301;-92
2022/06/16 06:06:43;;;;;;;;;;;;;;;;;;4987921;28;19917;-90
2022/06/16 06:17:23;;;;;;;;;;;;;;;;;;5004009;28;19960;-92
2022/06/16 06:19:49;;;;;;;;;;;;;;;;;;4975044;28;19922;-92
2022/06/16 06:22:16;;;;;;;;;;;;;;;;;;5006999;28;19928;-91
2022/06/16 06:24:46;;;;;;;;;;;;;;;;;;5012433;28;19921;-91
2022/06/16 06:27:19;;;;;;;;;;;;;;;;;;5037163;28;19917;-91
2022/06/16 06:29:51;;;;;;;;;;;;;;;;;;5041216;28;19921;-91
2022/06/16 06:32:18;;;;;;;;;;;;;;;;;;5023492;28;19913;-91
2022/06/16 06:34:44;;;;;;;;;;;;;;;;;;5042686;28;19901;-90
2022/06/16 06:37:13;;;;;;;;;;;;;;;;;;5023264;28;19967;-92
2022/06/16 06:39:39;;;;;;;;;;;;;;;;;;5039282;28;20423;-91
2022/06/16 06:42:05;;;;;;;;;;;;;;;;;;5026781;28;19917;-92
2022/06/16 06:44:31;;;;;;;;;;;;;;;;;;5036894;28;20367;-92
2022/06/16 06:46:57;;;;;;;;;;;;;;;;;;5007339;28;19992;-91
2022/06/16 06:49:23;;;;;;;;;;;;;;;;;;5009609;28;20012;-91
2022/06/16 06:51:49;;;;;;;;;;;;;;;;;;4994113;28;19967;-92
2022/06/16 06:54:14;;;;;;;;;;;;;;;;;;5009125;28;19922;-91
2022/06/16 06:56:40;;;;;;;;;;;;;;;;;;5004752;28;19929;-92
2022/06/16 06:59:06;;;;;;;;;;;;;;;;;;5007845;28;19930;-93
2022/06/16 07:01:32;;;;;;;;;;;;;;;;;;5007108;28;19944;-92
2022/06/16 07:03:59;;;;;;;;;;;;;;;;;;5007224;28;20366;-92
2022/06/16 07:06:25;;;;;;;;;;;;;;;;;;5021515;28;19929;-91
2022/06/16 07:08:50;;;;;;;;;;;;;;;;;;5007484;28;20072;-93
2022/06/16 07:11:17;;;;;;;;;;;;;;;;;;4998573;28;19948;-93
2022/06/16 07:13:44;;;;;;;;;;;;;;;;;;4996037;28;19922;-91
2022/06/16 07:16:10;;;;;;;;;;;;;;;;;;5004255;28;19922;-93
2022/06/16 07:18:37;;;;;;;;;;;;;;;;;;5004139;28;19928;-93
2022/06/16 07:21:04;;;;;;;;;;;;;;;;;;4983994;28;19922;-92
2022/06/16 07:23:29;;;;;;;;;;;;;;;;;;4988628;28;19921;-92
2022/06/16 07:25:56;;;;;;;;;;;;;;;;;;5007689;28;20231;-93
2022/06/16 07:28:22;;;;;;;;;;;;;;;;;;5007249;28;20016;-92
2022/06/16 07:30:47;;;;;;;;;;;;;;;;;;5001335;28;19979;-93
2022/06/16 07:33:13;;;;;;;;;;;;;;;;;;5024655;28;19917;-95
2022/06/16 07:35:43;;;;;;;;;;;;;;;;;;5034353;28;20288;-94
2022/06/16 07:38:29;;;;;;;;;;;;;;;;;;5013006;28;19921;-94
2022/06/16 07:41:31;;;;;;;;;;;;;;;;;;5025599;28;19948;-92
2022/06/16 07:43:53;;;;;;;;;;;;;;;;;;5031094;28;19922;-94
2022/06/16 07:46:23;;;;;;;;;;;;;;;;;;5022203;28;19921;-96
2022/06/16 07:48:52;;;;;;;;;;;;;;;;;;5020405;28;20405;-94
2022/06/16 07:51:18;;;;;;;;;;;;;;;;;;5039003;28;19928;-94
2022/06/16 07:53:43;;;;;;;;;;;;;;;;;;4995381;28;19921;-95
2022/06/16 07:56:09;;;;;;;;;;;;;;;;;;5014876;28;20379;-94
2022/06/16 07:58:35;;;;;;;;;;;;;;;;;;5012891;28;19921;-94
2022/06/16 08:01:07;;;;;;;;;;;;;;;;;;4997908;28;19933;-95
2022/06/16 08:03:34;;;;;;;;;;;;;;;;;;4996635;28;19917;-94
2022/06/16 08:06:01;;;;;;;;;;;;;;;;;;5017304;28;19913;-95
2022/06/16 08:08:27;;;;;;;;;;;;;;;;;;5003041;28;19918;-95
2022/06/16 08:10:53;;;;;;;;;;;;;;;;;;5019672;28;20266;-92
2022/06/16 08:13:20;;;;;;;;;;;;;;;;;;5019321;28;19972;-92
2022/06/16 08:15:46;;;;;;;;;;;;;;;;;;5017559;28;19923;-92
2022/06/16 08:18:13;;;;;;;;;;;;;;;;;;5017727;28;19959;-93
2022/06/16 08:20:41;;;;;;;;;;;;;;;;;;5012732;28;19969;-91
2022/06/16 08:23:06;;;;;;;;;;;;;;;;;;4999328;28;19976;-92
2022/06/16 08:25:32;;;;;;;;;;;;;;;;;;4981447;28;20358;-91
2022/06/16 08:28:03;;;;;;;;;;;;;;;;;;5001976;28;20177;-91
2022/06/16 08:30:29;;;;;;;;;;;;;;;;;;4997315;28;19932;-93
2022/06/16 08:32:56;;;;;;;;;;;;;;;;;;4998065;28;19917;-92
2022/06/16 08:35:21;;;;;;;;;;;;;;;;;;4998418;28;19918;-93
2022/06/16 08:37:47;;;;;;;;;;;;;;;;;;5000213;28;19968;-92
2022/06/16 08:40:13;;;;;;;;;;;;;;;;;;4996808;28;20008;-93
2022/06/16 08:42:42;;;;;;;;;;;;;;;;;;4978273;28;19925;-92
2022/06/16 08:45:10;;;;;;;;;;;;;;;;;;4984184;28;19918;-92
2022/06/16 08:47:36;;;;;;;;;;;;;;;;;;4986671;28;19921;-92
2022/06/16 08:50:23;;;;;;;;;;;;;;;;;;4988235;28;19902;-92
2022/06/16 08:52:55;;;;;;;;;;;;;;;;;;5005544;28;19914;-92
2022/06/16 08:55:28;;;;;;;;;;;;;;;;;;5005761;28;19925;-93
2022/06/16 08:58:03;;;;;;;;;;;;;;;;;;4988277;28;19914;-92
2022/06/16 09:00:49;;;;;;;;;;;;;;;;;;4985517;28;19928;-92
2022/06/16 09:03:34;;;;;;;;;;;;;;;;;;4977155;28;19948;-92
2022/06/16 09:06:07;;;;;;;;;;;;;;;;;;4988815;28;19917;-92
2022/06/16 09:08:48;;;;;;;;;;;;;;;;;;5007275;28;19943;-91
2022/06/16 09:11:17;;;;;;;;;;;;;;;;;;4994643;28;19929;-93
2022/06/16 09:14:03;;;;;;;;;;;;;;;;;;5002411;28;19958;-91
2022/06/16 09:16:58;;;;;;;;;;;;;;;;;;5005009;28;19922;-92
2022/06/16 09:19:33;;;;;;;;;;;;;;;;;;4984239;28;19924;-92
2022/06/16 09:22:06;;;;;;;;;;;;;;;;;;5022900;28;19925;-93
2022/06/16 09:24:44;;;;;;;;;;;;;;;;;;5011734;28;20378;-93
2022/06/16 09:27:21;;;;;;;;;;;;;;;;;;5025035;28;19921;-95
2022/06/16 09:30:04;;;;;;;;;;;;;;;;;;5029428;28;19928;-94
2022/06/16 09:32:37;;;;;;;;;;;;;;;;;;5008408;28;19928;-91
2022/06/16 09:35:21;;;;;;;;;;;;;;;;;;5018654;28;19968;-93
2022/06/16 09:38:02;;;;;;;;;;;;;;;;;;5013090;28;20010;-94
2022/06/16 09:40:53;;;;;;;;;;;;;;;;;;5014076;28;20039;-92
2022/06/16 09:43:32;;;;;;;;;;;;;;;;;;5002240;28;20313;-90
2022/06/16 09:46:01;;;;;;;;;;;;;;;;;;5009509;28;19952;-91
2022/06/16 09:48:55;;;;;;;;;;;;;;;;;;5018891;28;19906;-92
2022/06/16 09:51:29;;;;;;;;;;;;;;;;;;4999200;28;19932;-92
2022/06/16 09:54:30;;;;;;;;;;;;;;;;;;5034707;28;19905;-91
2022/06/16 09:57:02;;;;;;;;;;;;;;;;;;5015110;28;19932;-93
2022/06/16 09:59:54;;;;;;;;;;;;;;;;;;5042284;28;19937;-93
2022/06/16 10:05:24;;;;;;;;;;;;;;;;;;5037861;28;19912;-91
2022/06/16 10:08:17;;;;;;;;;;;;;;;;;;5039299;28;19917;-92
2022/06/16 10:11:26;;;;;;;;;;;;;;;;;;5015546;28;19967;-91
2022/06/16 10:14:02;;;;;;;;;;;;;;;;;;5022515;28;20349;-93
2022/06/16 10:16:38;;;;;;;;;;;;;;;;;;5031347;28;19917;-92
2022/06/16 10:19:03;;;;;;;;;;;;;;;;;;5033714;28;19936;-92
2022/06/16 10:21:29;;;;;;;;;;;;;;;;;;5031235;28;19995;-93
2022/06/16 10:23:56;;;;;;;;;;;;;;;;;;5025998;28;19922;-93
2022/06/16 10:26:21;;;;;;;;;;;;;;;;;;5017894;28;19928;-93
2022/06/16 10:29:10;;;;;;;;;;;;;;;;;;5032870;28;19917;-92
2022/06/16 10:31:49;;;;;;;;;;;;;;;;;;5039951;28;19955;-94
2022/06/16 10:34:36;;;;;;;;;;;;;;;;;;5024593;28;19930;-93
2022/06/16 10:37:04;;;;;;;;;;;;;;;;;;5014519;28;19912;-92
2022/06/16 10:39:40;;;;;;;;;;;;;;;;;;5012549;28;19921;-91
2022/06/16 10:42:21;;;;;;;;;;;;;;;;;;5029316;28;20277;-90
2022/06/16 10:45:10;;;;;;;;;;;;;;;;;;5034455;28;20629;-90
2022/06/16 10:50:37;;;;;;;;;;;;;;;;;;5035647;28;19928;-91
2022/06/16 10:53:29;;;;;;;;;;;;;;;;;;5027770;28;19912;-93
2022/06/16 10:55:56;;;;;;;;;;;;;;;;;;5027011;28;19921;-90
2022/06/16 10:58:30;;;;;;;;;;;;;;;;;;5033266;28;19929;-93
2022/06/16 11:01:08;;;;;;;;;;;;;;;;;;5021731;28;19925;-91
2022/06/16 13:01:25;;;;;;;;;;;;;;;;;;5070406;27;2316676;-90
2022/06/16 13:03:59;;;;;;;;;;;;;;;;;;5142623;27;19927;-90
2022/06/16 13:06:26;;;;;;;;;;;;;;;;;;5153701;27;19915;-90
2022/06/16 13:08:53;;;;;;;;;;;;;;;;;;5148344;27;19926;-91
2022/06/16 13:11:25;;;;;;;;;;;;;;;;;;5162672;27;19926;-92
2022/06/16 13:13:54;;;;;;;;;;;;;;;;;;5162165;27;19919;-93
2022/06/16 13:16:23;;;;;;;;;;;;;;;;;;5166528;27;19919;-93
2022/06/16 13:19:00;;;;;;;;;;;;;;;;;;5184166;27;19915;-95
2022/06/16 13:21:36;;;;;;;;;;;;;;;;;;5147572;27;20006;-91
2022/06/16 13:24:21;;;;;;;;;;;;;;;;;;5165481;27;19982;-91
2022/06/16 13:27:10;;;;;;;;;;;;;;;;;;5162156;27;20003;-93
2022/06/16 13:29:51;;;;;;;;;;;;;;;;;;5162242;27;20374;-92
2022/06/16 13:32:44;;;;;;;;;;;;;;;;;;5164701;27;19916;-91
2022/06/16 13:35:58;;;;;;;;;;;;;;;;;;5174799;27;19918;-93
2022/06/16 13:38:37;;;;;;;;;;;;;;;;;;5145312;27;19919;-92
2022/06/16 13:41:22;;;;;;;;;;;;;;;;;;5162568;27;19915;-93
2022/06/16 13:44:20;;;;;;;;;;;;;;;;;;5142574;27;19915;-92
2022/06/16 13:47:14;;;;;;;;;;;;;;;;;;5144184;27;19926;-92
2022/06/16 13:49:52;;;;;;;;;;;;;;;;;;5169017;27;19927;-91
2022/06/16 13:52:34;;;;;;;;;;;;;;;;;;5168625;27;20281;-90
2022/06/16 13:55:10;;;;;;;;;;;;;;;;;;5160627;27;19919;-93
2022/06/16 13:57:35;;;;;;;;;;;;;;;;;;5168643;27;20408;-92
2022/06/16 14:00:10;;;;;;;;;;;;;;;;;;5143910;27;19923;-92
2022/06/16 14:03:05;;;;;;;;;;;;;;;;;;5136420;27;19915;-92
2022/06/16 14:05:33;;;;;;;;;;;;;;;;;;5160229;27;19919;-92
2022/06/16 14:08:05;;;;;;;;;;;;;;;;;;5162105;27;19915;-90
2022/06/16 14:10:38;;;;;;;;;;;;;;;;;;5121900;27;19930;-93
2022/06/16 14:13:25;;;;;;;;;;;;;;;;;;5151939;27;19972;-91
2022/06/16 14:16:22;;;;;;;;;;;;;;;;;;5151357;27;19926;-93
2022/06/16 14:18:59;;;;;;;;;;;;;;;;;;5109580;27;20005;-91
2022/06/16 14:21:33;;;;;;;;;;;;;;;;;;5149928;27;19968;-91
2022/06/16 14:24:21;;;;;;;;;;;;;;;;;;5151626;27;19915;-90
2022/06/16 14:26:47;;;;;;;;;;;;;;;;;;5154055;27;19936;-91
2022/06/16 14:29:17;;;;;;;;;;;;;;;;;;5152295;27;19919;-91
2022/06/16 14:31:48;;;;;;;;;;;;;;;;;;5153711;27;19926;-93
2022/06/16 14:34:37;;;;;;;;;;;;;;;;;;5147571;27;19918;-92
2022/06/16 14:37:05;;;;;;;;;;;;;;;;;;5151246;27;19919;-93
2022/06/16 14:39:51;;;;;;;;;;;;;;;;;;5150731;27;19911;-92
2022/06/16 14:42:20;;;;;;;;;;;;;;;;;;5166270;27;20281;-93
2022/06/16 14:44:54;;;;;;;;;;;;;;;;;;5147040;27;19919;-94
2022/06/16 14:47:35;;;;;;;;;;;;;;;;;;5168422;27;19998;-94
2022/06/16 14:50:12;;;;;;;;;;;;;;;;;;5143442;27;19915;-92
2022/06/16 14:52:40;;;;;;;;;;;;;;;;;;5131420;27;19922;-92
2022/06/16 14:55:10;;;;;;;;;;;;;;;;;;5132128;27;19951;-94
2022/06/16 14:57:41;;;;;;;;;;;;;;;;;;5127351;27;19927;-94
2022/06/16 15:00:20;;;;;;;;;;;;;;;;;;5126173;28;19904;-92
2022/06/16 15:02:46;;;;;;;;;;;;;;;;;;5130408;28;19926;-92
2022/06/16 15:05:18;;;;;;;;;;;;;;;;;;5130096;28;19903;-94
2022/06/16 15:07:44;;;;;;;;;;;;;;;;;;5127400;28;19916;-92
2022/06/16 15:10:12;;;;;;;;;;;;;;;;;;5126769;28;19916;-94
2022/06/16 15:12:39;;;;;;;;;;;;;;;;;;5124788;28;20035;-94
2022/06/16 15:15:08;;;;;;;;;;;;;;;;;;5123580;28;19922;-95
2022/06/16 15:20:22;;;;;;;;;;;;;;;;;;5131394;28;19938;-93
2022/06/16 15:22:52;;;;;;;;;;;;;;;;;;5138767;28;19910;-93
2022/06/16 15:25:29;;;;;;;;;;;;;;;;;;5140146;28;19903;-93
2022/06/16 15:27:55;;;;;;;;;;;;;;;;;;5134558;28;19920;-92
2022/06/16 15:30:35;;;;;;;;;;;;;;;;;;5130606;27;20363;-95
2022/06/16 15:36:26;;;;;;;;;;;;;;;;;;5143242;27;19948;-91
2022/06/16 15:39:33;;;;;;;;;;;;;;;;;;5138065;27;20018;-95
2022/06/16 15:44:39;;;;;;;;;;;;;;;;;;5153259;27;19907;-93
2022/06/16 15:47:37;;;;;;;;;;;;;;;;;;5487445;22;19962;-94
2022/06/16 15:52:41;;;;;;;;;;;;;;;;;;5134974;28;19907;-94
2022/06/16 15:55:10;;;;;;;;;;;;;;;;;;5132242;28;19979;-92
2022/06/16 15:57:39;;;;;;;;;;;;;;;;;;5127060;28;19927;-93
2022/06/16 16:00:08;;;;;;;;;;;;;;;;;;5126971;28;19915;-93
2022/06/16 16:02:36;;;;;;;;;;;;;;;;;;5126841;28;19946;-94
2022/06/16 16:05:04;;;;;;;;;;;;;;;;;;5126223;28;19954;-93
2022/06/16 16:07:32;;;;;;;;;;;;;;;;;;5125173;28;19923;-92
2022/06/16 16:09:58;;;;;;;;;;;;;;;;;;5118551;28;19915;-92
2022/06/16 16:12:26;;;;;;;;;;;;;;;;;;5119032;28;19915;-92
2022/06/16 16:14:58;;;;;;;;;;;;;;;;;;5117424;28;19920;-90
2022/06/16 16:17:42;;;;;;;;;;;;;;;;;;5115000;28;19916;-93
2022/06/16 16:20:08;;;;;;;;;;;;;;;;;;5116351;28;19920;-92
2022/06/16 16:22:34;;;;;;;;;;;;;;;;;;5111369;28;19962;-93
2022/06/16 16:24:59;;;;;;;;;;;;;;;;;;5117057;28;19923;-93
2022/06/16 16:27:29;;;;;;;;;;;;;;;;;;5115439;28;19920;-92
2022/06/16 16:29:56;;;;;;;;;;;;;;;;;;5115803;28;20256;-92
2022/06/16 16:32:30;;;;;;;;;;;;;;;;;;5107560;28;19919;-93
2022/06/16 16:34:59;;;;;;;;;;;;;;;;;;5098642;28;19922;-92
2022/06/16 16:37:26;;;;;;;;;;;;;;;;;;5100531;28;19916;-91
2022/06/16 16:40:08;;;;;;;;;;;;;;;;;;5097718;28;19982;-92
2022/06/16 16:45:26;;;;;;;;;;;;;;;;;;5097255;28;19967;-91
2022/06/16 16:48:04;;;;;;;;;;;;;;;;;;5095642;28;20431;-93
2022/06/16 16:50:31;;;;;;;;;;;;;;;;;;5096300;28;20359;-93
2022/06/16 16:53:18;;;;;;;;;;;;;;;;;;5096974;28;19932;-92
2022/06/16 16:55:46;;;;;;;;;;;;;;;;;;5095657;28;20323;-92
2022/06/16 16:58:13;;;;;;;;;;;;;;;;;;5096882;28;19922;-94
2022/06/16 17:00:40;;;;;;;;;;;;;;;;;;5097753;28;19942;-93
2022/06/16 17:03:06;;;;;;;;;;;;;;;;;;5080732;28;19927;-92
2022/06/16 17:05:31;;;;;;;;;;;;;;;;;;5099770;28;19923;-93
2022/06/16 17:07:57;;;;;;;;;;;;;;;;;;5103313;28;19976;-92
2022/06/16 17:10:22;;;;;;;;;;;;;;;;;;5099889;28;19961;-94
2022/06/16 17:12:50;;;;;;;;;;;;;;;;;;5097104;28;19927;-93
2022/06/16 17:15:18;;;;;;;;;;;;;;;;;;5097527;28;19982;-94
2022/06/16 17:17:45;;;;;;;;;;;;;;;;;;5096168;28;19917;-91
2022/06/16 17:20:10;;;;;;;;;;;;;;;;;;5096881;28;20011;-95
2022/06/16 17:22:37;;;;;;;;;;;;;;;;;;5097900;28;19955;-93
2022/06/16 17:25:09;;;;;;;;;;;;;;;;;;5098657;28;19963;-93
2022/06/16 17:27:35;;;;;;;;;;;;;;;;;;5097673;28;19920;-93
2022/06/16 17:30:01;;;;;;;;;;;;;;;;;;5098061;28;19948;-92
2022/06/16 17:32:27;;;;;;;;;;;;;;;;;;5097309;28;19923;-92
2022/06/16 17:34:54;;;;;;;;;;;;;;;;;;5094515;28;19982;-95
2022/06/16 17:37:30;;;;;;;;;;;;;;;;;;5097974;28;19916;-92
2022/06/16 17:39:57;;;;;;;;;;;;;;;;;;5101851;28;19919;-93
2022/06/16 17:42:23;;;;;;;;;;;;;;;;;;5102751;28;19916;-95
2022/06/16 17:44:48;;;;;;;;;;;;;;;;;;5367132;22;19924;-93
2022/06/16 17:47:14;;;;;;;;;;;;;;;;;;5142862;27;19951;-93
2022/06/16 17:49:41;;;;;;;;;;;;;;;;;;5140593;27;19916;-92
2022/06/16 18:00:39;;;;;;;;;;;;;;;;;;5081635;28;19973;-95
2022/06/16 18:03:07;;;;;;;;;;;;;;;;;;5072732;28;19919;-93
2022/06/16 18:05:35;;;;;;;;;;;;;;;;;;5071891;28;19916;-93
2022/06/16 18:08:08;;;;;;;;;;;;;;;;;;5072765;28;19936;-93
2022/06/16 18:10:36;;;;;;;;;;;;;;;;;;5068525;28;19916;-91
2022/06/16 18:13:06;;;;;;;;;;;;;;;;;;5084772;28;19965;-93
2022/06/16 18:15:56;;;;;;;;;;;;;;;;;;5070145;28;19916;-92
2022/06/16 18:18:24;;;;;;;;;;;;;;;;;;5087905;28;19920;-93
2022/06/16 18:21:28;;;;;;;;;;;;;;;;;;5064879;28;20303;-93
2022/06/16 18:24:09;;;;;;;;;;;;;;;;;;5044281;28;19917;-92
2022/06/16 18:26:43;;;;;;;;;;;;;;;;;;5084571;28;19982;-92
2022/06/16 18:29:09;;;;;;;;;;;;;;;;;;5068266;28;19986;-92
2022/06/16 18:31:35;;;;;;;;;;;;;;;;;;5067007;28;19920;-92
2022/06/16 18:34:01;;;;;;;;;;;;;;;;;;5130949;27;19923;-92
2022/06/16 18:36:30;;;;;;;;;;;;;;;;;;5149009;27;19923;-91
2022/06/16 18:38:55;;;;;;;;;;;;;;;;;;5147317;27;19923;-91
2022/06/16 18:41:23;;;;;;;;;;;;;;;;;;5146697;27;19911;-92
2022/06/16 18:43:51;;;;;;;;;;;;;;;;;;5150918;27;19916;-92
2022/06/16 18:46:18;;;;;;;;;;;;;;;;;;5146080;27;19922;-93
2022/06/16 18:48:44;;;;;;;;;;;;;;;;;;5128350;27;19919;-92
2022/06/16 18:51:30;;;;;;;;;;;;;;;;;;5145774;27;19916;-92
2022/06/16 18:54:00;;;;;;;;;;;;;;;;;;5151105;27;19939;-92
2022/06/16 18:56:26;;;;;;;;;;;;;;;;;;5132469;27;19960;-92
2022/06/16 18:58:52;;;;;;;;;;;;;;;;;;5132473;27;19915;-93
2022/06/16 19:01:19;;;;;;;;;;;;;;;;;;5130762;27;19957;-92
2022/06/16 19:03:46;;;;;;;;;;;;;;;;;;5134636;27;19922;-93
2022/06/16 19:06:16;;;;;;;;;;;;;;;;;;5152658;27;20025;-94
2022/06/16 19:08:42;;;;;;;;;;;;;;;;;;5133550;27;19916;-90
2022/06/16 19:11:13;;;;;;;;;;;;;;;;;;5133820;27;19922;-92
2022/06/16 19:13:39;;;;;;;;;;;;;;;;;;5133162;27;19915;-93
2022/06/16 19:16:05;;;;;;;;;;;;;;;;;;5133122;27;20236;-94
2022/06/16 19:18:32;;;;;;;;;;;;;;;;;;5112187;27;19919;-92
2022/06/16 19:21:18;;;;;;;;;;;;;;;;;;5133198;27;19916;-94
2022/06/16 19:23:56;;;;;;;;;;;;;;;;;;5154221;27;19948;-92
2022/06/16 19:26:24;;;;;;;;;;;;;;;;;;5151688;27;19915;-95
2022/06/16 19:28:50;;;;;;;;;;;;;;;;;;5131874;27;19926;-93
2022/06/16 19:31:18;;;;;;;;;;;;;;;;;;5133267;27;19978;-93
2022/06/16 19:33:50;;;;;;;;;;;;;;;;;;5149802;27;19904;-93
2022/06/16 19:36:16;;;;;;;;;;;;;;;;;;5140721;27;19944;-93
2022/06/16 19:38:46;;;;;;;;;;;;;;;;;;5140416;27;19911;-92
2022/06/16 19:41:16;;;;;;;;;;;;;;;;;;5136235;27;19919;-92
2022/06/16 19:52:07;;;;;;;;;;;;;;;;;;5137286;27;19926;-92
2022/06/16 19:54:36;;;;;;;;;;;;;;;;;;5152692;27;20010;-92
2022/06/16 19:57:09;;;;;;;;;;;;;;;;;;5166509;27;19911;-92
2022/06/16 19:59:37;;;;;;;;;;;;;;;;;;5144689;27;20341;-91
2022/06/16 20:02:05;;;;;;;;;;;;;;;;;;5165257;27;19918;-93
2022/06/16 20:04:39;;;;;;;;;;;;;;;;;;5151886;27;19915;-92
2022/06/16 20:07:10;;;;;;;;;;;;;;;;;;5119545;27;19952;-90
2022/06/16 20:09:40;;;;;;;;;;;;;;;;;;5143190;27;19967;-92
2022/06/16 20:12:15;;;;;;;;;;;;;;;;;;5150742;27;19915;-91
2022/06/16 20:14:42;;;;;;;;;;;;;;;;;;5148445;27;19912;-91